createdAt,value
2023-03-02T00:02:22.273Z,101000.25
2023-03-02T00:04:48.587Z,100990.91
2023-03-02T00:07:14.771Z,100997.72
2023-03-02T00:09:40.954Z,101003.75
2023-03-02T00:12:07.147Z,101007.16
2023-03-02T00:14:33.322Z,101000.28
2023-03-02T00:16:59.476Z,100996.88
2023-03-02T00:19:25.648Z,100995.13
2023-03-02T00:21:53.792Z,101000.19
2023-03-02T00:24:19.962Z,100993.41
2023-03-02T00:26:46.176Z,100997.75
2023-03-02T00:29:12.382Z,100990.91
2023-03-02T00:31:38.600Z,100990.88
2023-03-02T00:34:04.812Z,100983.97
2023-03-02T00:36:30.991Z,100985.66
2023-03-02T00:38:57.152Z,100993.38
2023-03-02T00:41:23.269Z,100985.66
2023-03-02T00:43:49.448Z,100984.75
2023-03-02T00:46:15.684Z,100988.13
2023-03-02T00:48:41.924Z,100984.72
2023-03-02T00:51:08.098Z,100986.44
2023-03-02T00:53:34.259Z,100977.03
2023-03-02T00:56:00.450Z,100981.28
2023-03-02T00:58:26.663Z,100977.91
2023-03-02T01:00:52.802Z,100974.50
2023-03-02T01:03:19.011Z,100973.66
2023-03-02T01:05:45.252Z,100972.78
2023-03-02T01:08:11.426Z,100971.97
2023-03-02T01:10:37.600Z,100968.56
2023-03-02T01:13:03.784Z,100972.84
2023-03-02T01:15:29.955Z,100960.84
2023-03-02T01:17:56.135Z,100971.09
2023-03-02T01:20:22.285Z,100960.66
2023-03-02T01:22:48.480Z,100957.22
2023-03-02T01:25:14.649Z,100956.09
2023-03-02T01:27:40.784Z,100932.88
2023-03-02T01:30:06.952Z,100941.47
2023-03-02T01:32:33.200Z,100935.41
2023-03-02T01:35:01.252Z,100933.72
2023-03-02T01:37:27.396Z,100934.44
2023-03-02T01:39:53.517Z,100926.81
2023-03-02T01:42:19.673Z,100922.63
2023-03-02T01:44:45.856Z,100926.19
2023-03-02T01:47:12.058Z,100925.47
2023-03-02T01:49:38.181Z,100929.06
2023-03-02T01:52:04.392Z,100930.81
2023-03-02T01:54:30.579Z,100917.09
2023-03-02T01:56:56.743Z,100915.09
2023-03-02T01:59:22.886Z,100907.97
2023-03-02T02:01:48.999Z,100911.31
2023-03-02T02:04:15.170Z,100905.25
2023-03-02T02:06:41.386Z,100905.41
2023-03-02T02:09:07.500Z,100909.03
2023-03-02T02:11:33.647Z,100910.09
2023-03-02T02:13:59.836Z,100911.06
2023-03-02T02:16:26.072Z,100905.97
2023-03-02T02:18:52.259Z,100906.88
2023-03-02T02:21:18.499Z,100912.03
2023-03-02T02:23:44.713Z,100911.25
2023-03-02T02:26:10.867Z,100912.13
2023-03-02T02:28:36.982Z,100911.25
2023-03-02T02:31:03.093Z,100906.16
2023-03-02T02:33:29.267Z,100915.59
2023-03-02T02:35:55.443Z,100906.16
2023-03-02T02:38:21.627Z,100909.56
2023-03-02T02:40:47.843Z,100903.56
2023-03-02T02:43:14.018Z,100905.28
2023-03-02T02:45:40.208Z,100905.28
2023-03-02T02:48:06.428Z,100907.81
2023-03-02T02:50:32.619Z,100912.97
2023-03-02T02:52:58.813Z,100912.94
2023-03-02T02:55:24.956Z,100910.31
2023-03-02T02:57:51.052Z,100909.47
2023-03-02T03:00:17.259Z,100906.06
2023-03-02T03:02:43.694Z,100902.63
2023-03-02T03:05:09.903Z,100907.75
2023-03-02T03:07:36.047Z,100905.19
2023-03-02T03:10:02.300Z,100907.72
2023-03-02T03:12:28.574Z,100910.22
2023-03-02T03:14:54.760Z,100905.91
2023-03-02T03:17:20.947Z,100908.47
2023-03-02T03:19:47.113Z,100901.63
2023-03-02T03:22:13.320Z,100901.56
2023-03-02T03:24:39.452Z,100906.69
2023-03-02T03:27:05.695Z,100899.88
2023-03-02T03:29:31.842Z,100902.44
2023-03-02T03:31:58.056Z,100910.13
2023-03-02T03:34:24.249Z,100905.88
2023-03-02T03:36:50.450Z,100913.56
2023-03-02T03:39:16.573Z,100918.66
2023-03-02T03:41:42.774Z,100915.25
2023-03-02T03:44:08.945Z,100907.50
2023-03-02T03:46:35.540Z,100916.03
2023-03-02T03:49:01.907Z,100910.84
2023-03-02T03:51:28.055Z,100910.94
2023-03-02T03:53:54.220Z,100912.63
2023-03-02T03:56:20.374Z,100911.81
2023-03-02T03:58:46.562Z,100912.63
2023-03-02T04:01:12.714Z,100905.00
2023-03-02T04:03:38.927Z,100912.63
2023-03-02T04:06:05.166Z,100908.38
2023-03-02T04:08:31.367Z,100909.19
2023-03-02T04:10:57.502Z,100910.13
2023-03-02T04:13:23.675Z,100910.13
2023-03-02T04:15:49.934Z,100912.72
2023-03-02T04:18:16.097Z,100911.81
2023-03-02T04:20:42.246Z,100908.38
2023-03-02T04:23:08.366Z,100910.06
2023-03-02T04:25:34.533Z,100910.94
2023-03-02T04:28:00.713Z,100906.66
2023-03-02T04:30:26.868Z,100906.66
2023-03-02T04:32:53.052Z,100913.50
2023-03-02T04:35:19.322Z,100907.53
2023-03-02T04:37:45.471Z,100908.38
2023-03-02T04:40:11.662Z,100918.63
2023-03-02T04:42:37.860Z,100912.59
2023-03-02T04:45:04.078Z,100907.50
2023-03-02T04:47:30.200Z,100914.31
2023-03-02T04:49:56.356Z,100906.59
2023-03-02T04:52:22.532Z,100906.69
2023-03-02T04:54:48.686Z,100912.72
2023-03-02T04:57:14.929Z,100907.63
2023-03-02T04:59:41.106Z,100914.44
2023-03-02T05:02:07.353Z,100905.91
2023-03-02T05:04:33.614Z,100913.63
2023-03-02T05:06:59.811Z,100902.50
2023-03-02T05:09:25.985Z,100911.06
2023-03-02T05:11:52.132Z,100907.66
2023-03-02T05:14:18.290Z,100911.09
2023-03-02T05:16:44.420Z,100904.25
2023-03-02T05:19:10.598Z,100901.69
2023-03-02T05:21:36.768Z,100896.59
2023-03-02T05:24:02.923Z,100894.03
2023-03-02T05:26:29.058Z,100900.00
2023-03-02T05:28:55.284Z,100899.13
2023-03-02T05:31:21.506Z,100894.00
2023-03-02T05:33:47.727Z,100889.69
2023-03-02T05:36:13.926Z,100883.69
2023-03-02T05:38:40.115Z,100895.63
2023-03-02T05:41:06.387Z,100893.88
2023-03-02T05:43:32.585Z,100897.31
2023-03-02T05:45:58.700Z,100902.50
2023-03-02T05:48:24.870Z,100904.22
2023-03-02T05:50:51.028Z,100899.94
2023-03-02T05:53:17.238Z,100904.25
2023-03-02T05:55:43.397Z,100911.91
2023-03-02T05:58:09.546Z,100923.00
2023-03-02T06:00:38.504Z,100911.88
2023-03-02T06:03:07.531Z,100917.00
2023-03-02T06:05:33.746Z,100919.56
2023-03-02T06:07:59.945Z,100920.38
2023-03-02T06:10:26.067Z,100923.81
2023-03-02T06:12:52.282Z,100915.28
2023-03-02T06:15:18.457Z,100912.72
2023-03-02T06:17:44.579Z,100918.69
2023-03-02T06:20:10.796Z,100921.19
2023-03-02T06:22:37.029Z,100925.41
2023-03-02T06:25:03.144Z,100926.31
2023-03-02T06:27:29.538Z,100927.19
2023-03-02T06:29:55.749Z,100928.94
2023-03-02T06:32:33.067Z,100934.94
2023-03-02T06:38:24.881Z,100929.88
2023-03-02T06:43:25.341Z,100938.47
2023-03-02T06:48:36.447Z,100934.22
2023-03-02T06:51:02.644Z,100940.28
2023-03-02T06:53:28.795Z,100940.34
2023-03-02T06:55:54.914Z,100948.09
2023-03-02T06:58:21.093Z,100936.09
2023-03-02T07:00:47.305Z,100942.03
2023-03-02T07:03:13.526Z,100941.88
2023-03-02T07:05:39.735Z,100940.84
2023-03-02T07:08:07.732Z,100932.19
2023-03-02T07:10:33.969Z,100938.06
2023-03-02T07:13:00.287Z,100934.59
2023-03-02T07:15:26.458Z,100943.34
2023-03-02T07:17:52.667Z,100948.59
2023-03-02T07:20:18.844Z,100951.25
2023-03-02T07:22:45.057Z,100947.91
2023-03-02T07:25:11.538Z,100944.47
2023-03-02T07:27:37.722Z,100947.91
2023-03-02T07:30:03.839Z,100944.47
2023-03-02T07:32:30.000Z,100949.56
2023-03-02T07:34:56.164Z,100933.25
2023-03-02T07:37:22.342Z,100946.00
2023-03-02T07:42:28.893Z,100938.13
2023-03-02T07:44:55.063Z,100938.88
2023-03-02T07:47:21.187Z,100943.00
2023-03-02T07:49:47.358Z,100937.56
2023-03-02T07:52:13.527Z,100944.69
2023-03-02T07:54:39.717Z,100937.00
2023-03-02T07:57:05.864Z,100933.84
2023-03-02T07:59:32.010Z,100936.41
2023-03-02T08:01:58.214Z,100939.50
2023-03-02T08:04:24.474Z,100940.44
2023-03-02T08:06:50.621Z,100931.47
2023-03-02T08:09:17.068Z,100920.28
2023-03-02T08:11:43.383Z,100923.38
2023-03-02T08:14:09.532Z,100923.97
2023-03-02T08:16:35.869Z,100920.69
2023-03-02T08:19:02.273Z,100922.34
2023-03-02T08:21:28.479Z,100919.94
2023-03-02T08:23:54.705Z,100927.59
2023-03-02T08:26:20.866Z,100931.75
2023-03-02T08:28:47.061Z,100920.44
2023-03-02T08:31:13.308Z,100927.19
2023-03-02T08:33:42.192Z,100919.38
2023-03-02T08:36:08.485Z,100926.03
2023-03-02T08:38:34.699Z,100911.25
2023-03-02T08:41:00.888Z,100912.34
2023-03-02T08:43:27.106Z,100911.00
2023-03-02T08:45:53.277Z,100907.72
2023-03-02T08:48:19.411Z,100907.56
2023-03-02T08:50:45.588Z,100913.94
2023-03-02T08:53:11.771Z,100898.28
2023-03-02T08:55:37.948Z,100897.63
2023-03-02T08:58:04.176Z,100887.84
2023-03-02T09:00:32.328Z,100882.75
2023-03-02T09:02:59.666Z,100884.47
2023-03-02T09:05:25.854Z,100883.88
2023-03-02T09:07:51.997Z,100874.78
2023-03-02T09:10:18.157Z,100879.00
2023-03-02T09:12:44.293Z,100878.84
2023-03-02T09:15:13.350Z,100876.97
2023-03-02T09:17:42.351Z,100875.09
2023-03-02T09:20:08.572Z,100870.06
2023-03-02T09:22:34.921Z,100876.56
2023-03-02T09:25:01.165Z,100865.75
2023-03-02T09:27:27.385Z,100868.00
2023-03-02T09:29:53.557Z,100872.56
2023-03-02T09:32:19.893Z,100866.44
2023-03-02T09:34:46.112Z,100867.06
2023-03-02T09:37:12.292Z,100863.88
2023-03-02T09:39:40.671Z,100866.97
2023-03-02T09:42:06.881Z,100861.94
2023-03-02T09:44:33.040Z,100859.91
2023-03-02T09:46:59.217Z,100858.09
2023-03-02T09:49:25.452Z,100868.97
2023-03-02T09:51:51.615Z,100875.81
2023-03-02T09:54:20.523Z,100866.16
2023-03-02T09:56:46.841Z,100867.19
2023-03-02T09:59:12.959Z,100863.66
2023-03-02T10:01:39.163Z,100855.25
2023-03-02T10:04:05.356Z,100851.69
2023-03-02T10:06:31.908Z,100859.03
2023-03-02T10:08:58.223Z,100852.19
2023-03-02T10:11:24.351Z,100846.34
2023-03-02T10:13:50.530Z,100842.13
2023-03-02T10:16:16.778Z,100848.13
2023-03-02T10:18:43.155Z,100844.28
2023-03-02T10:21:09.359Z,100837.63
2023-03-02T10:23:35.569Z,100841.84
2023-03-02T10:26:01.748Z,100838.28
2023-03-02T10:28:27.894Z,100843.25
2023-03-02T10:30:55.599Z,100839.66
2023-03-02T10:33:21.789Z,100840.59
2023-03-02T10:35:48.916Z,100838.56
2023-03-02T10:38:15.106Z,100838.13
2023-03-02T10:40:41.313Z,100832.66
2023-03-02T10:43:08.713Z,100828.44
2023-03-02T10:45:34.912Z,100822.44
2023-03-02T10:48:01.119Z,100821.50
2023-03-02T10:50:30.104Z,100824.41
2023-03-02T10:53:01.080Z,100823.91
2023-03-02T10:55:28.154Z,100824.81
2023-03-02T10:57:54.401Z,100823.13
2023-03-02T11:00:20.537Z,100818.44
2023-03-02T11:02:46.666Z,100809.69
2023-03-02T11:05:12.814Z,100815.00
2023-03-02T11:07:39.015Z,100808.56
2023-03-02T11:10:05.216Z,100811.03
2023-03-02T11:12:31.395Z,100805.44
2023-03-02T11:14:57.598Z,100805.28
2023-03-02T11:17:23.748Z,100799.00
2023-03-02T11:19:49.931Z,100800.88
2023-03-02T11:22:17.328Z,100797.22
2023-03-02T11:24:43.498Z,100784.66
2023-03-02T11:27:09.701Z,100780.66
2023-03-02T11:29:35.878Z,100781.47
2023-03-02T11:32:03.028Z,100791.25
2023-03-02T11:34:29.261Z,100789.88
2023-03-02T11:36:55.515Z,100782.00
2023-03-02T11:39:21.731Z,100775.03
2023-03-02T11:41:50.774Z,100777.56
2023-03-02T11:44:16.975Z,100772.97
2023-03-02T11:46:43.228Z,100773.97
2023-03-02T11:49:09.367Z,100775.00
2023-03-02T11:51:36.105Z,100766.13
2023-03-02T11:54:02.463Z,100765.91
2023-03-02T11:56:28.672Z,100767.53
2023-03-02T11:58:54.830Z,100761.25
2023-03-02T12:01:20.988Z,100764.88
2023-03-02T12:03:47.145Z,100754.47
2023-03-02T12:06:13.369Z,100753.25
2023-03-02T12:08:39.485Z,100752.09
2023-03-02T12:11:05.655Z,100761.50
2023-03-02T12:13:31.832Z,100760.44
2023-03-02T12:15:59.187Z,100760.34
2023-03-02T12:18:25.326Z,100750.16
2023-03-02T12:20:51.475Z,100749.25
2023-03-02T12:23:17.674Z,100756.31
2023-03-02T12:25:43.865Z,100757.13
2023-03-02T12:28:10.040Z,100749.66
2023-03-02T12:30:36.206Z,100754.34
2023-03-02T12:33:02.387Z,100742.81
2023-03-02T12:35:28.630Z,100744.53
2023-03-02T12:37:54.906Z,100745.53
2023-03-02T12:40:21.075Z,100741.56
2023-03-02T12:42:48.782Z,100741.56
2023-03-02T12:45:15.095Z,100738.63
2023-03-02T12:47:41.470Z,100737.44
2023-03-02T12:50:07.748Z,100739.97
2023-03-02T12:52:34.004Z,100737.19
2023-03-02T12:55:00.348Z,100739.13
2023-03-02T12:57:26.507Z,100735.81
2023-03-02T12:59:52.672Z,100728.75
2023-03-02T13:02:18.915Z,100726.69
2023-03-02T13:04:47.016Z,100724.03
2023-03-02T13:07:19.561Z,100714.50
2023-03-02T13:09:56.164Z,100723.72
2023-03-02T13:12:27.934Z,100723.44
2023-03-02T13:14:54.101Z,100720.25
2023-03-02T13:17:20.241Z,100716.97
2023-03-02T13:19:46.463Z,100717.75
2023-03-02T13:22:12.666Z,100708.75
2023-03-02T13:24:38.916Z,100707.09
2023-03-02T13:27:05.114Z,100717.03
2023-03-02T13:29:31.313Z,100716.84
2023-03-02T13:31:57.544Z,100712.34
2023-03-02T13:34:23.771Z,100707.44
2023-03-02T13:36:50.001Z,100703.47
2023-03-02T13:39:16.274Z,100695.94
2023-03-02T13:41:42.455Z,100698.41
2023-03-02T13:44:08.636Z,100703.63
2023-03-02T13:46:39.316Z,100699.25
2023-03-02T13:49:10.747Z,100697.56
2023-03-02T13:51:37.566Z,100698.44
2023-03-02T13:54:03.699Z,100698.53
2023-03-02T13:56:29.907Z,100696.66
2023-03-02T13:58:56.121Z,100699.03
2023-03-02T14:01:22.325Z,100691.44
2023-03-02T14:03:48.533Z,100699.75
2023-03-02T14:06:14.729Z,100689.25
2023-03-02T14:08:40.916Z,100690.09
2023-03-02T14:11:07.071Z,100685.41
2023-03-02T14:13:33.312Z,100688.16
2023-03-02T14:15:59.515Z,100689.91
2023-03-02T14:18:25.896Z,100679.41
2023-03-02T14:20:52.083Z,100679.69
2023-03-02T14:23:18.318Z,100674.72
2023-03-02T14:25:44.545Z,100675.94
2023-03-02T14:28:10.758Z,100675.84
2023-03-02T14:30:39.701Z,100677.44
2023-03-02T14:33:05.849Z,100675.84
2023-03-02T14:35:33.313Z,100675.69
2023-03-02T14:37:59.512Z,100675.69
2023-03-02T14:40:25.742Z,100669.59
2023-03-02T14:42:52.017Z,100663.47
2023-03-02T14:45:18.192Z,100663.16
2023-03-02T14:47:44.387Z,100658.22
2023-03-02T14:50:10.609Z,100652.84
2023-03-02T14:52:36.837Z,100658.84
2023-03-02T14:55:03.069Z,100646.13
2023-03-02T14:57:29.286Z,100644.84
2023-03-02T14:59:55.527Z,100647.63
2023-03-02T15:02:31.169Z,100639.19
2023-03-02T15:04:57.741Z,100655.81
2023-03-02T15:07:23.989Z,100645.25
2023-03-02T15:09:50.162Z,100644.59
2023-03-02T15:12:16.360Z,100642.09
2023-03-02T15:14:42.506Z,100647.47
2023-03-02T15:17:08.712Z,100644.84
2023-03-02T15:19:34.884Z,100652.19
2023-03-02T15:27:46.663Z,100650.28
2023-03-02T15:30:20.019Z,100650.91
2023-03-02T15:41:00.742Z,100664.56
2023-03-02T15:46:16.980Z,100654.56
2023-03-02T15:48:43.143Z,100659.78
2023-03-02T15:51:09.289Z,100665.16
2023-03-02T16:01:58.968Z,100668.03
2023-03-02T16:04:25.164Z,100672.66
2023-03-02T16:06:51.369Z,100669.16
2023-03-02T16:09:17.551Z,100677.38
2023-03-02T16:11:43.737Z,100680.78
2023-03-02T16:14:09.906Z,100680.94
2023-03-02T16:16:36.125Z,100684.31
2023-03-02T16:19:02.325Z,100691.66
2023-03-02T16:21:28.597Z,100692.50
2023-03-02T16:23:55.107Z,100692.47
2023-03-02T16:40:45.226Z,100708.59
2023-03-02T16:43:11.422Z,100718.16
2023-03-02T16:45:37.623Z,100718.69
2023-03-02T16:48:19.476Z,100726.44
2023-03-02T16:50:45.661Z,100731.41
2023-03-02T16:53:11.896Z,100727.47
2023-03-02T17:06:43.534Z,100745.16
2023-03-02T17:09:13.450Z,100744.22
2023-03-02T17:14:29.927Z,100757.66
2023-03-02T17:16:56.139Z,100766.22
2023-03-02T17:24:58.048Z,100769.44
2023-03-02T17:30:09.052Z,100777.38
2023-03-02T17:32:35.249Z,100773.59
2023-03-02T17:35:01.390Z,100775.81
2023-03-02T17:37:27.557Z,100788.31
2023-03-02T17:39:53.788Z,100788.69
2023-03-02T17:42:19.930Z,100795.03
2023-03-02T17:47:38.063Z,100789.69
2023-03-02T17:58:35.972Z,100796.59
2023-03-02T18:01:15.262Z,100799.16
2023-03-02T18:03:41.642Z,100809.09
2023-03-02T18:06:10.692Z,100804.28
2023-03-02T18:08:36.998Z,100808.22
2023-03-02T18:13:46.401Z,100814.25
2023-03-02T18:19:01.956Z,100830.59
2023-03-02T18:21:28.128Z,100823.19
2023-03-02T18:23:54.251Z,100838.03
2023-03-02T18:32:03.354Z,100851.63
2023-03-02T18:34:31.434Z,100856.09
2023-03-02T18:36:57.579Z,100852.78
2023-03-02T18:39:23.735Z,100847.75
2023-03-02T18:41:49.914Z,100850.34
2023-03-02T18:44:16.100Z,100854.75
2023-03-02T18:46:43.108Z,100846.28
2023-03-02T18:49:09.340Z,100851.63
2023-03-02T18:51:35.515Z,100847.47
2023-03-02T18:54:01.684Z,100857.91
2023-03-02T18:56:27.864Z,100857.97
2023-03-02T18:58:54.067Z,100851.88
2023-03-02T19:01:20.296Z,100857.00
2023-03-02T19:03:46.621Z,100859.72
2023-03-02T19:06:12.851Z,100859.81
2023-03-02T19:08:59.673Z,100861.69
2023-03-02T19:14:15.746Z,100871.41
2023-03-02T19:16:41.944Z,100874.13
2023-03-02T19:19:08.196Z,100874.19
2023-03-02T19:21:34.344Z,100875.84
2023-03-02T19:24:00.490Z,100876.72
2023-03-02T19:26:29.472Z,100881.22
2023-03-02T19:28:55.701Z,100885.56
2023-03-02T19:31:22.021Z,100889.94
2023-03-02T19:33:48.268Z,100902.75
2023-03-02T19:36:14.475Z,100896.72
2023-03-02T19:41:31.240Z,100897.94
2023-03-02T19:43:57.391Z,100899.81
2023-03-02T19:46:23.566Z,100899.06
2023-03-02T19:48:49.707Z,100897.47
2023-03-02T19:51:15.914Z,100907.78
2023-03-02T19:53:42.119Z,100909.66
2023-03-02T19:56:08.283Z,100899.47
2023-03-02T19:58:34.476Z,100904.69
2023-03-02T20:01:00.632Z,100902.97
2023-03-02T20:03:26.810Z,100912.41
2023-03-02T20:05:52.973Z,100908.13
2023-03-02T20:08:19.177Z,100912.53
2023-03-02T20:10:45.318Z,100910.03
2023-03-02T20:13:11.504Z,100912.72
2023-03-02T20:15:53.139Z,100898.31
2023-03-02T20:18:19.315Z,100927.41
2023-03-02T20:20:45.455Z,100931.81
2023-03-02T20:23:11.653Z,100934.41
2023-03-02T20:25:37.820Z,100925.72
2023-03-02T20:28:03.934Z,100934.25
2023-03-02T20:30:30.244Z,100932.50
2023-03-02T20:32:56.509Z,100946.22
2023-03-02T20:35:22.808Z,100954.53
2023-03-02T20:37:48.979Z,100958.66
2023-03-02T20:40:16.538Z,100950.94
2023-03-02T20:42:42.715Z,100948.34
2023-03-02T20:45:08.885Z,100954.44
2023-03-02T20:47:35.089Z,100952.78
2023-03-02T20:50:01.269Z,100955.44
2023-03-02T20:52:27.389Z,100952.13
2023-03-02T20:54:53.573Z,100955.59
2023-03-02T20:57:19.823Z,100954.84
2023-03-02T20:59:46.228Z,100958.41
2023-03-02T21:07:47.151Z,100961.22
2023-03-02T21:10:17.199Z,100961.31
2023-03-02T21:15:27.528Z,100969.97
2023-03-02T21:17:53.730Z,100964.94
2023-03-02T21:20:19.927Z,100970.97
2023-03-02T21:22:46.056Z,100970.16
2023-03-02T21:25:12.239Z,100972.75
2023-03-02T21:27:38.402Z,100974.47
2023-03-02T21:30:04.587Z,100971.91
2023-03-02T21:32:30.791Z,100947.13
2023-03-02T21:35:01.630Z,100968.47
2023-03-02T21:37:27.867Z,100966.72
2023-03-02T21:39:54.021Z,100970.09
2023-03-02T21:42:20.180Z,100970.06
2023-03-02T21:44:46.310Z,100967.53
2023-03-02T21:47:12.496Z,100966.69
2023-03-02T21:49:38.676Z,100973.56
2023-03-02T21:52:04.832Z,100971.03
2023-03-02T21:54:30.973Z,100965.94
2023-03-02T21:56:57.136Z,100963.38
2023-03-02T21:59:23.306Z,100963.38
2023-03-02T22:01:49.478Z,100963.38
2023-03-02T22:04:15.716Z,100966.78
2023-03-02T22:06:41.893Z,100965.03
2023-03-02T22:09:08.033Z,100961.66
2023-03-02T22:11:34.283Z,100966.78
2023-03-02T22:14:00.514Z,100977.97
2023-03-02T22:16:27.912Z,100975.41
2023-03-02T22:18:54.115Z,100975.47
2023-03-02T22:21:20.299Z,100979.75
2023-03-02T22:23:46.492Z,100974.63
2023-03-02T22:26:12.624Z,100977.19
2023-03-02T22:28:40.760Z,100978.91
2023-03-02T22:31:07.031Z,100971.19
2023-03-02T22:33:36.055Z,100967.78
2023-03-02T22:36:03.512Z,100968.63
2023-03-02T22:38:29.807Z,100970.34
2023-03-02T22:40:55.972Z,100965.22
2023-03-02T22:43:22.175Z,100972.91
2023-03-02T22:45:48.400Z,100974.63
2023-03-02T22:48:14.758Z,100983.19
2023-03-02T22:50:41.006Z,100989.19
2023-03-02T22:53:07.443Z,100982.31
2023-03-02T22:55:33.700Z,100984.91
2023-03-02T22:58:00.030Z,100992.63
2023-03-02T23:00:27.454Z,100996.03
2023-03-02T23:02:53.705Z,100999.47
2023-03-02T23:05:19.957Z,100998.63
2023-03-02T23:07:46.148Z,100997.75
2023-03-02T23:10:12.315Z,100989.16
2023-03-02T23:12:38.550Z,100994.28
2023-03-02T23:15:04.905Z,101002.84
2023-03-02T23:17:31.103Z,101004.53
2023-03-02T23:19:57.278Z,101003.66
2023-03-02T23:22:23.454Z,101003.66
2023-03-02T23:24:51.451Z,100997.66
2023-03-02T23:27:17.683Z,100999.31
2023-03-02T23:29:43.930Z,100999.31
2023-03-02T23:32:14.396Z,101007.00
2023-03-02T23:34:40.663Z,101002.69
2023-03-02T23:37:06.925Z,101006.94
2023-03-02T23:39:33.152Z,101013.75
2023-03-02T23:42:00.663Z,101013.75
2023-03-02T23:44:26.970Z,101000.94
2023-03-02T23:46:53.201Z,101011.13
2023-03-02T23:49:20.788Z,101004.31
2023-03-02T23:51:46.966Z,101007.75
2023-03-02T23:54:14.357Z,101010.25
2023-03-02T23:56:40.571Z,101006.00
2023-03-02T23:59:06.757Z,101005.13
